createdAt,value
2017-11-09T00:00:17.763Z,56.8
2017-11-09T00:02:17.589Z,54.8
2017-11-09T00:04:17.434Z,50.7
2017-11-09T00:06:18.274Z,50.9
2017-11-09T00:08:17.132Z,50.4
2017-11-09T00:10:17.926Z,53.4
2017-11-09T00:12:17.804Z,51.5
2017-11-09T00:14:17.607Z,54.7
2017-11-09T00:16:17.497Z,59.9
2017-11-09T00:18:18.350Z,53.2
2017-11-09T00:20:17.202Z,51.7
2017-11-09T00:22:17.074Z,54
2017-11-09T00:24:17.878Z,56.2
2017-11-09T00:26:17.699Z,61.5
2017-11-09T00:28:17.563Z,54.7
2017-11-09T00:30:18.390Z,58.8
2017-11-09T00:32:21.224Z,57.4
2017-11-09T00:34:17.048Z,56.4
2017-11-09T00:36:17.889Z,56.7
2017-11-09T00:38:17.743Z,48.9
2017-11-09T00:40:17.579Z,59.1
2017-11-09T00:42:17.450Z,55.2
2017-11-09T00:44:21.261Z,56
2017-11-09T00:46:17.089Z,66
2017-11-09T00:48:16.936Z,54.2
2017-11-09T00:50:16.801Z,61.7
2017-11-09T00:52:17.633Z,55.5
2017-11-09T00:54:17.465Z,58.1
2017-11-09T00:56:17.352Z,57.4
2017-11-09T00:58:17.192Z,55.4
2017-11-09T01:00:17.044Z,51.6
2017-11-09T01:02:16.881Z,56.8
2017-11-09T01:04:17.703Z,59.9
2017-11-09T01:06:17.571Z,59.4
2017-11-09T01:08:17.419Z,64.7
2017-11-09T01:10:17.273Z,56.7
2017-11-09T01:12:17.164Z,55.1
2017-11-09T01:14:17.959Z,55.6
2017-11-09T01:16:17.831Z,63.2
2017-11-09T01:18:17.695Z,56.3
2017-11-09T01:20:17.542Z,52.4
2017-11-09T01:22:17.388Z,55
2017-11-09T01:24:18.227Z,48.8
2017-11-09T01:26:17.062Z,51.6
2017-11-09T01:28:16.927Z,48.9
2017-11-09T01:30:18.709Z,57.5
2017-11-09T01:32:21.534Z,54.1
2017-11-09T01:34:18.385Z,51.5
2017-11-09T01:36:18.219Z,51.5
2017-11-09T01:38:21.040Z,51.6
2017-11-09T01:40:17.877Z,57.4
2017-11-09T01:42:21.734Z,58.1
2017-11-09T01:44:18.565Z,55.8
2017-11-09T01:46:18.370Z,50.4
2017-11-09T01:48:21.207Z,59.2
2017-11-09T01:50:21.044Z,53.1
2017-11-09T01:52:16.884Z,47.3
2017-11-09T01:54:21.720Z,55.8
2017-11-09T01:56:17.526Z,50.7
2017-11-09T01:58:17.363Z,54.6
2017-11-09T02:00:21.157Z,51.2
2017-11-09T02:02:17.018Z,53.5
2017-11-09T02:04:20.837Z,52.5
2017-11-09T02:06:17.675Z,52.1
2017-11-09T02:08:21.464Z,55.1
2017-11-09T02:10:17.333Z,49.4
2017-11-09T02:12:18.137Z,56.5
2017-11-09T02:14:20.951Z,51.2
2017-11-09T02:16:17.795Z,53.1
2017-11-09T02:18:18.638Z,53
2017-11-09T02:20:18.442Z,54.2
2017-11-09T02:22:21.247Z,56.6
2017-11-09T02:24:17.097Z,55.5
2017-11-09T02:26:17.929Z,50.2
2017-11-09T02:28:21.763Z,48.6
2017-11-09T02:30:21.571Z,53.7
2017-11-09T02:32:21.394Z,50.1
2017-11-09T02:34:21.213Z,53.4
2017-11-09T02:36:18.054Z,55
2017-11-09T02:38:16.908Z,52.3
2017-11-09T02:40:17.735Z,49.8
2017-11-09T02:42:21.508Z,49.8
2017-11-09T02:44:17.377Z,53
2017-11-09T02:46:17.201Z,49.8
2017-11-09T02:48:21.018Z,55.3
2017-11-09T02:50:20.815Z,47.4
2017-11-09T02:52:17.671Z,53.5
2017-11-09T02:54:21.450Z,51.1
2017-11-09T02:56:18.312Z,54.5
2017-11-09T02:58:18.116Z,49
2017-11-09T03:00:16.976Z,53.2
2017-11-09T03:02:20.792Z,54.2
2017-11-09T03:04:17.643Z,49.3
2017-11-09T03:06:17.790Z,52.9
2017-11-09T03:08:18.293Z,55.4
2017-11-09T03:10:18.163Z,51.8
2017-11-09T03:12:21.222Z,58.5
2017-11-09T03:14:17.820Z,54.9
2017-11-09T03:16:17.639Z,49.6
2017-11-09T03:18:18.508Z,52.2
2017-11-09T03:20:18.314Z,50.3
2017-11-09T03:22:21.134Z,54.1
2017-11-09T03:24:20.941Z,62.5
2017-11-09T03:26:17.760Z,52.1
2017-11-09T03:28:21.565Z,55.5
2017-11-09T03:30:18.388Z,52.7
2017-11-09T03:32:21.216Z,49.9
2017-11-09T03:34:21.061Z,51.1
2017-11-09T03:36:17.888Z,51.6
2017-11-09T03:38:21.685Z,56
2017-11-09T03:40:17.538Z,57.4
2017-11-09T03:42:18.344Z,57.5
2017-11-09T03:44:21.155Z,49.1
2017-11-09T03:46:18.009Z,52.2
2017-11-09T03:48:17.807Z,44.6
2017-11-09T03:50:17.665Z,53.3
2017-11-09T03:52:21.477Z,51.1
2017-11-09T03:54:18.317Z,50.7
2017-11-09T03:56:18.125Z,49.1
2017-11-09T03:58:16.981Z,52
2017-11-09T04:00:16.829Z,51.6
2017-11-09T04:02:21.656Z,50
2017-11-09T04:04:17.495Z,58.3
2017-11-09T04:06:18.342Z,52.8
2017-11-09T04:08:17.185Z,49.8
2017-11-09T04:10:18.036Z,56.9
2017-11-09T04:12:20.870Z,56.1
2017-11-09T04:14:17.713Z,55
2017-11-09T04:16:17.502Z,53.5
2017-11-09T04:18:18.362Z,53.4
2017-11-09T04:20:21.177Z,58.6
2017-11-09T04:22:17.057Z,49.7
2017-11-09T04:24:20.827Z,51.1
2017-11-09T04:26:17.723Z,52.1
2017-11-09T04:28:17.548Z,56.4
2017-11-09T04:30:18.388Z,51.1
2017-11-09T04:32:17.247Z,55.4
2017-11-09T04:34:21.046Z,51
2017-11-09T04:36:16.889Z,59.3
2017-11-09T04:38:17.729Z,57.1
2017-11-09T04:40:17.570Z,53.4
2017-11-09T04:42:17.377Z,54.2
2017-11-09T04:44:17.208Z,53.1
2017-11-09T04:46:18.063Z,52.6
2017-11-09T04:48:16.872Z,56.7
2017-11-09T04:50:17.735Z,57.1
2017-11-09T04:52:21.530Z,58.4
2017-11-09T04:54:17.347Z,56.1
2017-11-09T04:56:17.188Z,50.6
2017-11-09T04:58:17.016Z,54.6
2017-11-09T05:00:16.842Z,53.5
2017-11-09T05:02:18.626Z,50.2
2017-11-09T05:04:17.477Z,52.7
2017-11-09T05:06:18.318Z,58.1
2017-11-09T05:08:21.124Z,56.6
2017-11-09T05:10:17.983Z,58
2017-11-09T05:12:20.812Z,52.9
2017-11-09T05:14:21.606Z,56.5
2017-11-09T05:16:17.470Z,53.7
2017-11-09T05:18:18.300Z,60.4
2017-11-09T05:20:21.151Z,49.6
2017-11-09T05:22:16.978Z,56.5
2017-11-09T05:24:16.835Z,53.5
2017-11-09T05:26:17.653Z,58
2017-11-09T05:28:17.552Z,57.1
2017-11-09T05:30:21.354Z,51.3
2017-11-09T05:32:17.208Z,53.9
2017-11-09T05:34:17.133Z,58.6
2017-11-09T05:36:16.861Z,53
2017-11-09T05:38:17.703Z,54.4
2017-11-09T05:40:17.544Z,50.3
2017-11-09T05:42:17.370Z,52.4
2017-11-09T05:44:17.214Z,51.1
2017-11-09T05:46:17.053Z,58
2017-11-09T05:48:20.903Z,51.6
2017-11-09T05:50:18.724Z,53.5
2017-11-09T05:52:17.529Z,59.3
2017-11-09T05:54:17.352Z,55.4
2017-11-09T05:56:17.176Z,59.6
2017-11-09T05:58:20.938Z,59.4
2017-11-09T06:00:16.773Z,54.5
2017-11-09T06:02:21.573Z,60.3
2017-11-09T06:04:21.397Z,56.3
2017-11-09T06:06:17.223Z,58.9
2017-11-09T06:08:21.043Z,50.1
2017-11-09T06:10:17.890Z,52.7
2017-11-09T06:12:21.706Z,57.5
2017-11-09T06:14:17.550Z,54.9
2017-11-09T06:16:17.364Z,53.8
2017-11-09T06:18:18.181Z,51
2017-11-09T06:20:17.068Z,52.9
2017-11-09T06:22:17.860Z,57.6
2017-11-09T06:24:17.701Z,53.2
2017-11-09T06:26:17.520Z,55
2017-11-09T06:28:17.339Z,51
2017-11-09T06:30:17.177Z,55.3
2017-11-09T06:32:17.064Z,57.5
2017-11-09T06:34:17.878Z,57.1
2017-11-09T06:36:17.679Z,58.9
2017-11-09T06:38:17.520Z,62.2
2017-11-09T06:40:17.341Z,59.6
2017-11-09T06:42:21.160Z,49.5
2017-11-09T06:44:16.995Z,61.6
2017-11-09T06:46:17.846Z,53
2017-11-09T06:48:21.644Z,49.2
2017-11-09T06:50:17.493Z,48.8
2017-11-09T06:52:17.351Z,54
2017-11-09T06:54:21.172Z,51.8
2017-11-09T06:56:18.015Z,49.9
2017-11-09T06:58:20.808Z,54.6
2017-11-09T07:00:18.683Z,51.7
2017-11-09T07:02:18.479Z,51.7
2017-11-09T07:04:21.278Z,47.4
2017-11-09T07:06:17.138Z,49
2017-11-09T07:08:17.980Z,52.3
2017-11-09T07:10:17.771Z,50.8
2017-11-09T07:12:21.557Z,53.2
2017-11-09T07:14:17.404Z,55.9
2017-11-09T07:16:18.233Z,48.5
2017-11-09T07:18:18.070Z,53.1
2017-11-09T07:20:17.881Z,55.1
2017-11-09T07:22:21.680Z,56.4
2017-11-09T07:24:17.554Z,51.9
2017-11-09T07:26:18.351Z,50.6
2017-11-09T07:28:17.172Z,47.9
2017-11-09T07:30:17.033Z,55.1
2017-11-09T07:32:16.874Z,58
2017-11-09T07:34:17.689Z,51.1
2017-11-09T07:36:17.541Z,52.9
2017-11-09T07:38:21.349Z,52.1
2017-11-09T07:40:18.198Z,56.1
2017-11-09T07:42:17.040Z,53.7
2017-11-09T07:44:16.869Z,50.1
2017-11-09T07:46:17.702Z,51.3
2017-11-09T07:48:17.518Z,51.4
2017-11-09T07:50:21.340Z,50.8
2017-11-09T07:52:17.257Z,50.6
2017-11-09T07:54:18.059Z,45.9
2017-11-09T07:56:16.919Z,46.5
2017-11-09T07:58:21.755Z,57.6
2017-11-09T08:00:17.591Z,46.8
2017-11-09T08:02:21.392Z,49.4
2017-11-09T08:04:18.233Z,55.5
2017-11-09T08:06:17.086Z,49.2
2017-11-09T08:08:20.894Z,51.9
2017-11-09T08:10:17.723Z,56.6
2017-11-09T08:12:17.568Z,48
2017-11-09T08:14:21.411Z,51.3
2017-11-09T08:16:17.251Z,55.1
2017-11-09T08:18:18.083Z,50.1
2017-11-09T08:20:17.910Z,55.4
2017-11-09T08:22:21.711Z,54.8
2017-11-09T08:24:17.550Z,53.3
2017-11-09T08:26:18.376Z,47.7
2017-11-09T08:28:21.194Z,46.2
2017-11-09T08:30:17.053Z,51.4
2017-11-09T08:32:20.886Z,45.2
2017-11-09T08:34:21.719Z,51.4
2017-11-09T08:36:21.533Z,52.3
2017-11-09T08:38:21.371Z,51.4
2017-11-09T08:40:18.191Z,46.3
2017-11-09T08:42:21.013Z,57.9
2017-11-09T08:44:16.867Z,49.2
2017-11-09T08:46:17.699Z,58.4
2017-11-09T08:48:17.548Z,55.6
2017-11-09T08:50:21.343Z,59.6
2017-11-09T08:52:17.204Z,49.1
2017-11-09T08:54:17.063Z,53.6
2017-11-09T08:56:17.884Z,54.9
2017-11-09T08:58:17.724Z,62.7
2017-11-09T09:00:17.575Z,54.2
2017-11-09T09:02:17.419Z,54.7
2017-11-09T09:04:21.264Z,58.3
2017-11-09T09:06:18.096Z,50.2
2017-11-09T09:08:16.948Z,51.4
2017-11-09T09:10:17.781Z,59.4
2017-11-09T09:12:17.626Z,52.7
2017-11-09T09:14:17.486Z,51.8
2017-11-09T09:16:17.332Z,53.3
2017-11-09T09:18:18.157Z,62.6
2017-11-09T09:20:16.995Z,46
2017-11-09T09:22:16.813Z,53.5
2017-11-09T09:24:17.671Z,47
2017-11-09T09:26:17.523Z,51.7
2017-11-09T09:28:21.338Z,50.4
2017-11-09T09:30:17.177Z,48.6
2017-11-09T09:32:17.005Z,52.6
2017-11-09T09:34:16.860Z,54.7
2017-11-09T09:36:17.673Z,56
2017-11-09T09:38:17.521Z,57.3
2017-11-09T09:40:17.366Z,60.1
2017-11-09T09:42:17.209Z,62.7
2017-11-09T09:44:17.058Z,58.4
2017-11-09T09:46:17.914Z,59.5
2017-11-09T09:48:17.713Z,61.1
2017-11-09T09:50:17.555Z,65.7
2017-11-09T09:52:17.441Z,64.4
2017-11-09T09:54:21.262Z,64.7
2017-11-09T09:56:17.104Z,62.6
2017-11-09T09:58:16.963Z,63.6
2017-11-09T10:00:16.788Z,68.2
2017-11-09T10:02:17.651Z,73.7
2017-11-09T10:04:17.480Z,64.3
2017-11-09T10:06:18.313Z,74.5
2017-11-09T10:08:17.154Z,69
2017-11-09T10:10:18.055Z,68.4
2017-11-09T10:12:20.865Z,69.9
2017-11-09T10:14:17.724Z,65.9
2017-11-09T10:16:17.590Z,71.3
2017-11-09T10:18:18.391Z,56.8
2017-11-09T10:20:17.258Z,61.4
2017-11-09T10:22:17.111Z,59.2
2017-11-09T10:24:16.950Z,64.7
2017-11-09T10:26:17.801Z,64.1
2017-11-09T10:28:21.593Z,58.5
2017-11-09T10:30:17.438Z,56.5
2017-11-09T10:32:17.290Z,59.8
2017-11-09T10:34:17.129Z,54.3
2017-11-09T10:36:17.959Z,54.9
2017-11-09T10:38:16.846Z,54.3
2017-11-09T10:40:17.639Z,63.5
2017-11-09T10:44:17.321Z,52.7
2017-11-09T10:46:18.181Z,57.4
2017-11-09T10:48:20.966Z,52.5
2017-11-09T10:50:20.804Z,56
2017-11-09T10:52:17.677Z,64.2
2017-11-09T10:54:21.488Z,56
2017-11-09T10:56:17.381Z,56.3
2017-11-09T10:58:18.197Z,64.1
2017-11-09T11:00:17.051Z,58.2
2017-11-09T11:02:16.883Z,51.6
2017-11-09T11:04:17.723Z,50
2017-11-09T11:06:17.600Z,58.6
2017-11-09T11:08:18.389Z,50.3
2017-11-09T11:10:17.231Z,49.1
2017-11-09T11:12:17.058Z,55.3
2017-11-09T11:14:20.868Z,51.4
2017-11-09T11:16:17.710Z,55.6
2017-11-09T11:18:18.553Z,55.9
2017-11-09T11:20:21.364Z,50.1
2017-11-09T11:22:17.229Z,52.8
2017-11-09T11:24:21.022Z,55.6
2017-11-09T11:26:17.869Z,54
2017-11-09T11:28:17.711Z,55.1
2017-11-09T11:30:21.533Z,53.6
2017-11-09T11:32:17.367Z,55.2
2017-11-09T11:34:17.223Z,57.6
2017-11-09T11:36:18.072Z,60.1
2017-11-09T11:38:20.860Z,63.5
2017-11-09T11:40:17.721Z,51.3
2017-11-09T11:42:21.535Z,61.1
2017-11-09T11:44:21.350Z,63.5
2017-11-09T11:46:18.182Z,57.3
2017-11-09T11:48:21.014Z,62.3
2017-11-09T11:50:17.804Z,60.8
2017-11-09T11:52:17.644Z,56.2
2017-11-09T11:54:21.442Z,62.9
2017-11-09T11:56:17.265Z,58.4
2017-11-09T11:58:17.110Z,60.6
2017-11-09T12:00:20.911Z,54.1
2017-11-09T12:02:17.733Z,66.2
2017-11-09T12:04:21.547Z,72.5
2017-11-09T12:06:17.429Z,63.6
2017-11-09T12:08:18.186Z,68.8
2017-11-09T12:10:18.033Z,63.1
2017-11-09T12:12:20.797Z,66.5
2017-11-09T12:14:17.626Z,65.5
2017-11-09T12:16:17.460Z,66.9
2017-11-09T12:18:18.224Z,61.9
2017-11-09T12:20:17.069Z,73.6
2017-11-09T12:22:17.871Z,63.6
2017-11-09T12:24:18.663Z,72.2
2017-11-09T12:26:17.505Z,65
2017-11-09T12:28:18.307Z,64.6
2017-11-09T12:30:21.104Z,63.4
2017-11-09T12:32:20.939Z,71.2
2017-11-09T12:34:17.728Z,64.7
2017-11-09T12:36:17.534Z,71.5
2017-11-09T12:38:17.385Z,71
2017-11-09T12:40:17.203Z,69.5
2017-11-09T12:42:20.977Z,65.2
2017-11-09T12:44:16.842Z,69.6
2017-11-09T12:46:17.622Z,68.6
2017-11-09T12:48:21.442Z,72
2017-11-09T12:50:21.255Z,71.2
2017-11-09T12:52:21.111Z,62.4
2017-11-09T12:54:20.903Z,75.6
2017-11-09T12:56:17.730Z,63.9
2017-11-09T12:58:17.595Z,68.6
2017-11-09T13:00:18.391Z,62
2017-11-09T13:02:18.228Z,64.2
2017-11-09T13:04:21.035Z,68.9
2017-11-09T13:06:16.912Z,64.1
2017-11-09T13:08:18.718Z,64.6
2017-11-09T13:10:17.519Z,61.7
2017-11-09T13:12:21.374Z,73.1
2017-11-09T13:14:21.171Z,65.2
2017-11-09T13:16:18.026Z,64.2
2017-11-09T13:18:17.864Z,76.1
2017-11-09T13:20:17.712Z,69.9
2017-11-09T13:22:17.545Z,62.4
2017-11-09T13:24:17.369Z,62.1
2017-11-09T13:26:17.226Z,63.8
2017-11-09T13:28:17.054Z,62.3
2017-11-09T13:30:16.875Z,66.4
2017-11-09T13:32:17.724Z,68.7
2017-11-09T13:34:21.550Z,64.4
2017-11-09T13:36:17.348Z,65.4
2017-11-09T13:38:17.215Z,72.6
2017-11-09T13:40:18.070Z,71.8
2017-11-09T13:42:16.897Z,68.1
2017-11-09T13:44:17.756Z,70.9
2017-11-09T13:46:17.593Z,67.1
2017-11-09T13:48:17.442Z,63.1
2017-11-09T13:50:18.242Z,71.6
2017-11-09T13:52:17.089Z,74.5
2017-11-09T13:54:16.944Z,69.8
2017-11-09T13:56:17.763Z,63.7
2017-11-09T13:58:17.615Z,80.8
2017-11-09T14:00:21.467Z,68.2
2017-11-09T14:02:21.281Z,77.3
2017-11-09T14:04:17.121Z,69
2017-11-09T14:06:17.938Z,71.3
2017-11-09T14:08:16.782Z,77.5
2017-11-09T14:10:17.599Z,69.7
2017-11-09T14:12:17.466Z,72.1
2017-11-09T14:14:21.284Z,67.7
2017-11-09T14:16:17.097Z,68.6
2017-11-09T14:18:17.929Z,76
2017-11-09T14:20:16.797Z,77.9
2017-11-09T14:22:17.608Z,74.5
2017-11-09T14:24:17.466Z,69.7
2017-11-09T14:26:17.285Z,73
2017-11-09T14:28:17.117Z,70.1
2017-11-09T14:30:16.948Z,71.6
2017-11-09T14:32:16.805Z,71.9
2017-11-09T14:34:17.642Z,66.3
2017-11-09T14:36:17.478Z,80
2017-11-09T14:38:17.383Z,83.1
2017-11-09T14:40:17.213Z,79.8
2017-11-09T14:42:21.007Z,73.8
2017-11-09T14:44:16.903Z,69.6
2017-11-09T14:46:17.708Z,75.2
2017-11-09T14:48:17.555Z,77.1
2017-11-09T14:50:17.407Z,69.1
2017-11-09T14:52:21.227Z,69.8
2017-11-09T14:54:17.073Z,71.7
2017-11-09T14:56:17.935Z,85.5
2017-11-09T14:58:16.778Z,71.2
2017-11-09T15:00:17.640Z,78
2017-11-09T15:02:21.467Z,77.9
2017-11-09T15:04:17.340Z,79.2
2017-11-09T15:06:18.141Z,81
2017-11-09T15:08:16.988Z,78.1
2017-11-09T15:10:17.853Z,83.6
2017-11-09T15:12:21.676Z,73.7
2017-11-09T15:14:17.546Z,71.2
2017-11-09T15:16:18.411Z,79.2
2017-11-09T15:18:18.223Z,73.8
2017-11-09T15:20:21.071Z,66.1
2017-11-09T15:22:16.955Z,71.5
2017-11-09T15:24:20.749Z,75.4
2017-11-09T15:26:17.609Z,82.1
2017-11-09T15:28:17.458Z,78.5
2017-11-09T15:30:21.303Z,74.1
2017-11-09T15:32:21.139Z,79
2017-11-09T15:34:20.943Z,76.5
2017-11-09T15:36:17.776Z,89.2
2017-11-09T15:38:17.638Z,77.3
2017-11-09T15:40:17.467Z,78.8
2017-11-09T15:42:21.291Z,80.6
2017-11-09T15:44:17.146Z,79.1
2017-11-09T15:46:17.978Z,72
2017-11-09T15:48:20.799Z,80.1
2017-11-09T15:50:17.685Z,79.3
2017-11-09T15:52:21.485Z,87.5
2017-11-09T15:54:17.323Z,70
2017-11-09T15:56:17.145Z,74.8
2017-11-09T15:58:17.031Z,83.8
2017-11-09T16:00:16.859Z,77.3
2017-11-09T16:04:17.582Z,72.8
2017-11-09T16:06:17.440Z,84.7
2017-11-09T16:08:17.276Z,74.4
2017-11-09T16:10:18.129Z,77.8
2017-11-09T16:12:16.972Z,78.7
2017-11-09T16:14:16.831Z,76.3
2017-11-09T16:16:17.685Z,90.6
2017-11-09T16:18:18.540Z,86
2017-11-09T16:20:21.374Z,79.6
2017-11-09T16:22:17.219Z,81.2
2017-11-09T16:24:17.069Z,80.2
2017-11-09T16:26:17.934Z,79.8
2017-11-09T16:28:16.787Z,80.3
2017-11-09T16:30:18.656Z,84.1
2017-11-09T16:32:17.515Z,88.1
2017-11-09T16:34:17.372Z,86.9
2017-11-09T16:36:18.220Z,92.4
2017-11-09T16:38:17.092Z,87
2017-11-09T16:40:17.934Z,91.5
2017-11-09T16:42:16.799Z,84.3
2017-11-09T16:44:17.685Z,96.1
2017-11-09T16:46:17.525Z,93.2
2017-11-09T16:48:17.385Z,88.4
2017-11-09T16:50:17.236Z,100.7
2017-11-09T16:52:17.093Z,85.1
2017-11-09T16:54:16.956Z,91.6
2017-11-09T16:56:17.806Z,86.9
2017-11-09T16:58:17.636Z,97.3
2017-11-09T17:00:18.512Z,89.2
2017-11-09T17:02:17.370Z,88.9
2017-11-09T17:04:17.217Z,94
2017-11-09T17:06:18.083Z,101.4
2017-11-09T17:08:16.926Z,103.4
2017-11-09T17:10:17.748Z,103.6
2017-11-09T17:12:17.606Z,101.6
2017-11-09T17:14:17.457Z,100.1
2017-11-09T17:16:17.313Z,95.3
2017-11-09T17:18:18.151Z,94.3
2017-11-09T17:20:17.026Z,116.1
2017-11-09T17:22:20.835Z,108.2
2017-11-09T17:24:17.700Z,104.5
2017-11-09T17:26:17.526Z,103.9
2017-11-09T17:28:17.375Z,108.8
2017-11-09T17:30:17.254Z,103.2
2017-11-09T17:32:17.074Z,100.5
2017-11-09T17:34:16.934Z,108
2017-11-09T17:36:17.751Z,107.1
2017-11-09T17:38:17.606Z,110.5
2017-11-09T17:40:17.437Z,111.5
2017-11-09T17:42:17.302Z,114.2
2017-11-09T17:44:17.197Z,112
2017-11-09T17:46:17.987Z,106.7
2017-11-09T17:48:16.839Z,126.4
2017-11-09T17:50:17.674Z,113.9
2017-11-09T17:52:17.548Z,117.1
2017-11-09T17:54:21.364Z,121.4
2017-11-09T17:56:17.244Z,113.6
2017-11-09T17:58:21.064Z,113
2017-11-09T18:00:16.901Z,110.9
2017-11-09T18:02:17.753Z,114.6
2017-11-09T18:04:17.615Z,108.6
2017-11-09T18:06:17.461Z,119.8
2017-11-09T18:08:21.274Z,119.8
2017-11-09T18:10:18.136Z,109.6
2017-11-09T18:12:16.997Z,115.8
2017-11-09T18:14:16.840Z,134.5
2017-11-09T18:16:17.695Z,110
2017-11-09T18:18:18.535Z,110.6
2017-11-09T18:20:17.376Z,109.4
2017-11-09T18:22:17.245Z,111.6
2017-11-09T18:24:21.072Z,104.3
2017-11-09T18:26:17.942Z,104.7
2017-11-09T18:28:20.768Z,101.8
2017-11-09T18:30:17.616Z,105.6
2017-11-09T18:32:17.448Z,109.1
2017-11-09T18:34:17.336Z,107.7
2017-11-09T18:36:18.187Z,99.4
2017-11-09T18:38:17.009Z,106
2017-11-09T18:40:17.848Z,101.6
2017-11-09T18:42:17.725Z,102.8
2017-11-09T18:44:17.563Z,107.3
2017-11-09T18:46:18.434Z,106.7
2017-11-09T18:48:18.261Z,98
2017-11-09T18:50:21.092Z,111.2
2017-11-09T18:52:16.980Z,100.4
2017-11-09T18:54:16.809Z,111.2
2017-11-09T18:56:17.680Z,99
2017-11-09T18:58:17.534Z,115
2017-11-09T19:00:17.400Z,97.7
2017-11-09T19:02:21.206Z,108.1
2017-11-09T19:04:17.093Z,92.8
2017-11-09T19:06:17.922Z,107.1
2017-11-09T19:08:17.791Z,99.8
2017-11-09T19:10:17.623Z,102.2
2017-11-09T19:12:17.509Z,106.3
2017-11-09T19:14:21.335Z,103.7
2017-11-09T19:16:17.176Z,109.4
2017-11-09T19:18:18.032Z,105.5
2017-11-09T19:20:16.917Z,104.4
2017-11-09T19:22:21.748Z,101.9
2017-11-09T19:24:17.576Z,104.8
2017-11-09T19:26:18.432Z,95.3
2017-11-09T19:28:17.305Z,96.8
2017-11-09T19:30:17.140Z,102.4
2017-11-09T19:32:17.033Z,94.1
2017-11-09T19:34:17.851Z,93.5
2017-11-09T19:36:17.656Z,97.4
2017-11-09T19:38:17.532Z,90.4
2017-11-09T19:40:17.411Z,105.8
2017-11-09T19:42:21.216Z,84.7
2017-11-09T19:44:17.075Z,94.9
2017-11-09T19:46:17.935Z,90.3
2017-11-09T19:48:16.863Z,94.4
2017-11-09T19:50:18.627Z,84.4
2017-11-09T19:52:17.447Z,84.7
2017-11-09T19:54:17.292Z,85.5
2017-11-09T19:56:17.140Z,88.4
2017-11-09T19:58:16.981Z,92.6
2017-11-09T20:00:16.841Z,95.9
2017-11-09T20:02:17.705Z,95
2017-11-09T20:04:17.532Z,84.1
2017-11-09T20:06:17.358Z,89.4
2017-11-09T20:08:17.207Z,79.7
2017-11-09T20:10:18.040Z,89.5
2017-11-09T20:12:16.872Z,91.8
2017-11-09T20:14:17.730Z,87.9
2017-11-09T20:16:17.548Z,95.8
2017-11-09T20:18:21.391Z,95.9
2017-11-09T20:20:17.219Z,95.1
2017-11-09T20:22:17.069Z,100.5
2017-11-09T20:24:16.913Z,91
2017-11-09T20:26:17.732Z,90.6
2017-11-09T20:28:17.598Z,88.8
2017-11-09T20:30:17.433Z,95.5
2017-11-09T20:32:17.237Z,85.4
2017-11-09T20:34:17.099Z,83.1
2017-11-09T20:36:17.932Z,95.4
2017-11-09T20:38:17.773Z,83.5
2017-11-09T20:40:17.604Z,78.9
2017-11-09T20:42:17.441Z,88.8
2017-11-09T20:44:17.279Z,84
2017-11-09T20:46:18.079Z,76.5
2017-11-09T20:48:16.945Z,78.7
2017-11-09T20:50:20.721Z,82.8
2017-11-09T20:52:17.581Z,80.8
2017-11-09T20:54:17.409Z,81
2017-11-09T20:56:18.218Z,86.1
2017-11-09T20:58:17.067Z,83.6
2017-11-09T21:00:20.896Z,80.8
2017-11-09T21:02:17.726Z,81.6
2017-11-09T21:04:17.567Z,70.5
2017-11-09T21:06:17.385Z,77.1
2017-11-09T21:08:17.228Z,68.2
2017-11-09T21:10:18.042Z,71.3
2017-11-09T21:12:16.908Z,69.2
2017-11-09T21:14:17.730Z,81
2017-11-09T21:16:17.539Z,71.6
2017-11-09T21:18:18.403Z,80.7
2017-11-09T21:20:17.225Z,78.2
2017-11-09T21:22:17.079Z,79.5
2017-11-09T21:24:16.943Z,88.2
2017-11-09T21:26:17.770Z,75.4
2017-11-09T21:28:17.615Z,76.3
2017-11-09T21:30:17.444Z,77.4
2017-11-09T21:32:17.277Z,83.1
2017-11-09T21:34:17.128Z,75.8
2017-11-09T21:36:16.952Z,67
2017-11-09T21:38:16.761Z,72
2017-11-09T21:40:17.585Z,78.6
2017-11-09T21:42:17.426Z,72.7
2017-11-09T21:44:17.265Z,67.7
2017-11-09T21:46:18.089Z,89.9
2017-11-09T21:48:16.952Z,72
2017-11-09T21:50:16.768Z,73.5
2017-11-09T21:52:17.592Z,76.3
2017-11-09T21:54:17.407Z,74.7
2017-11-09T21:56:18.223Z,65.3
2017-11-09T21:58:17.053Z,72.3
2017-11-09T22:00:20.834Z,69.9
2017-11-09T22:02:17.660Z,76.4
2017-11-09T22:04:17.475Z,62.5
2017-11-09T22:06:18.293Z,68.6
2017-11-09T22:08:21.088Z,73.3
2017-11-09T22:10:17.928Z,66.3
2017-11-09T22:12:17.762Z,64.1
2017-11-09T22:14:17.576Z,70.9
2017-11-09T22:16:17.408Z,66.4
2017-11-09T22:18:18.224Z,68.4
2017-11-09T22:20:17.043Z,71.3
2017-11-09T22:22:16.843Z,66.4
2017-11-09T22:24:17.725Z,61
2017-11-09T22:26:17.468Z,69.4
2017-11-09T22:28:17.297Z,69.2
2017-11-09T22:30:18.086Z,60.3
2017-11-09T22:32:16.939Z,74.1
2017-11-09T22:34:20.715Z,65.4
2017-11-09T22:36:17.552Z,62.6
2017-11-09T22:38:17.384Z,59.8
2017-11-09T22:40:18.193Z,58.2
2017-11-09T22:42:17.022Z,64
2017-11-09T22:44:16.836Z,63.5
2017-11-09T22:46:17.642Z,69.5
2017-11-09T22:48:17.483Z,60.8
2017-11-09T22:50:18.271Z,61.6
2017-11-09T22:52:17.123Z,63.7
2017-11-09T22:54:20.926Z,59.5
2017-11-09T22:56:17.734Z,57
2017-11-09T22:58:17.570Z,65.2
2017-11-09T23:00:21.370Z,58.5
2017-11-09T23:02:17.189Z,55.5
2017-11-09T23:04:17.076Z,58.5
2017-11-09T23:06:17.844Z,62.8
2017-11-09T23:08:17.696Z,61.1
2017-11-09T23:10:17.507Z,49.2
2017-11-09T23:12:21.329Z,55.9
2017-11-09T23:14:21.119Z,55.1
2017-11-09T23:16:16.972Z,57.1
2017-11-09T23:18:17.777Z,56.6
2017-11-09T23:20:17.608Z,56.7
2017-11-09T23:22:17.443Z,54.1
2017-11-09T23:24:21.243Z,56.5
2017-11-09T23:26:18.092Z,48.1
2017-11-09T23:28:16.946Z,52.6
2017-11-09T23:30:20.749Z,55.4
2017-11-09T23:32:17.595Z,49.4
2017-11-09T23:34:17.407Z,56.3
2017-11-09T23:36:18.214Z,54.7
2017-11-09T23:38:17.055Z,54.6
2017-11-09T23:40:17.882Z,54.7
2017-11-09T23:42:17.696Z,46.6
2017-11-09T23:44:17.524Z,53.4
2017-11-09T23:46:18.353Z,54.8
2017-11-09T23:48:17.187Z,49.5
2017-11-09T23:50:17.051Z,52.4
2017-11-09T23:52:20.815Z,54.9
2017-11-09T23:54:17.653Z,45.5
2017-11-09T23:56:17.495Z,50.2
2017-11-09T23:58:21.301Z,52.2
